sensor_id;sensor_type;location;lat;lon;timestamp;P1;durP1;ratioP1;P2;durP2;ratioP2
51523;SDS011;37610;51.790;21.590;2022-10-18T00:02:01;28.30;;;15.90;;
51523;SDS011;37610;51.790;21.590;2022-10-18T00:06:03;27.40;;;14.40;;
51523;SDS011;37610;51.790;21.590;2022-10-18T00:10:06;25.80;;;15.70;;
51523;SDS011;37610;51.790;21.590;2022-10-18T00:14:08;24.40;;;14.40;;
51523;SDS011;37610;51.790;21.590;2022-10-18T00:18:09;22.50;;;15.00;;
51523;SDS011;37610;51.790;21.590;2022-10-18T00:22:10;22.60;;;15.10;;
51523;SDS011;37610;51.790;21.590;2022-10-18T00:26:16;25.90;;;17.50;;
51523;SDS011;37610;51.790;21.590;2022-10-18T00:30:19;26.20;;;14.70;;
51523;SDS011;37610;51.790;21.590;2022-10-18T00:34:21;30.70;;;17.70;;
51523;SDS011;37610;51.790;21.590;2022-10-18T00:38:22;29.90;;;18.40;;
51523;SDS011;37610;51.790;21.590;2022-10-18T00:42:32;28.30;;;17.30;;
51523;SDS011;37610;51.790;21.590;2022-10-18T00:46:36;30.20;;;17.20;;
51523;SDS011;37610;51.790;21.590;2022-10-18T00:50:39;29.10;;;16.80;;
51523;SDS011;37610;51.790;21.590;2022-10-18T00:54:43;26.40;;;17.30;;
51523;SDS011;37610;51.790;21.590;2022-10-18T00:58:46;25.80;;;18.20;;
51523;SDS011;37610;51.790;21.590;2022-10-18T01:02:49;26.60;;;17.00;;
51523;SDS011;37610;51.790;21.590;2022-10-18T01:24:59;24.80;;;14.30;;
51523;SDS011;37610;51.790;21.590;2022-10-18T01:37:43;24.60;;;14.60;;
51523;SDS011;37610;51.790;21.590;2022-10-18T01:41:48;24.60;;;13.30;;
51523;SDS011;37610;51.790;21.590;2022-10-18T01:45:52;25.00;;;14.10;;
51523;SDS011;37610;51.790;21.590;2022-10-18T01:49:59;22.30;;;13.60;;
51523;SDS011;37610;51.790;21.590;2022-10-18T01:54:03;21.60;;;14.30;;
51523;SDS011;37610;51.790;21.590;2022-10-18T01:58:48;23.40;;;14.00;;
51523;SDS011;37610;51.790;21.590;2022-10-18T02:02:45;26.90;;;15.20;;
51523;SDS011;37610;51.790;21.590;2022-10-18T02:06:50;22.80;;;14.40;;
51523;SDS011;37610;51.790;21.590;2022-10-18T02:14:59;20.30;;;13.50;;
51523;SDS011;37610;51.790;21.590;2022-10-18T02:23:12;20.60;;;11.90;;
51523;SDS011;37610;51.790;21.590;2022-10-18T02:27:16;21.90;;;15.90;;
51523;SDS011;37610;51.790;21.590;2022-10-18T02:31:19;25.90;;;16.40;;
51523;SDS011;37610;51.790;21.590;2022-10-18T02:35:24;22.90;;;14.20;;
51523;SDS011;37610;51.790;21.590;2022-10-18T02:39:31;21.70;;;14.40;;
51523;SDS011;37610;51.790;21.590;2022-10-18T02:43:35;19.60;;;12.70;;
51523;SDS011;37610;51.790;21.590;2022-10-18T02:47:37;21.40;;;14.20;;
51523;SDS011;37610;51.790;21.590;2022-10-18T02:51:38;21.20;;;13.50;;
51523;SDS011;37610;51.790;21.590;2022-10-18T02:55:40;20.30;;;13.60;;
51523;SDS011;37610;51.790;21.590;2022-10-18T02:59:41;23.10;;;14.10;;
51523;SDS011;37610;51.790;21.590;2022-10-18T03:03:42;25.80;;;14.20;;
51523;SDS011;37610;51.790;21.590;2022-10-18T03:07:44;25.70;;;14.40;;
51523;SDS011;37610;51.790;21.590;2022-10-18T03:11:45;24.00;;;15.80;;
51523;SDS011;37610;51.790;21.590;2022-10-18T03:15:47;24.50;;;16.40;;
51523;SDS011;37610;51.790;21.590;2022-10-18T03:19:48;32.30;;;15.90;;
51523;SDS011;37610;51.790;21.590;2022-10-18T03:23:50;25.00;;;17.20;;
51523;SDS011;37610;51.790;21.590;2022-10-18T03:27:52;27.80;;;16.30;;
51523;SDS011;37610;51.790;21.590;2022-10-18T03:31:53;25.50;;;14.50;;
51523;SDS011;37610;51.790;21.590;2022-10-18T03:35:55;23.90;;;15.20;;
51523;SDS011;37610;51.790;21.590;2022-10-18T03:39:56;28.70;;;16.90;;
51523;SDS011;37610;51.790;21.590;2022-10-18T03:43:57;25.00;;;15.50;;
51523;SDS011;37610;51.790;21.590;2022-10-18T03:47:59;24.60;;;14.20;;
51523;SDS011;37610;51.790;21.590;2022-10-18T03:52:00;26.30;;;16.00;;
51523;SDS011;37610;51.790;21.590;2022-10-18T03:56:02;27.20;;;16.90;;
51523;SDS011;37610;51.790;21.590;2022-10-18T04:00:03;27.20;;;16.50;;
51523;SDS011;37610;51.790;21.590;2022-10-18T04:04:05;33.80;;;17.80;;
51523;SDS011;37610;51.790;21.590;2022-10-18T04:08:07;28.00;;;15.70;;
51523;SDS011;37610;51.790;21.590;2022-10-18T04:12:08;21.80;;;14.30;;
51523;SDS011;37610;51.790;21.590;2022-10-18T04:16:10;23.80;;;14.90;;
51523;SDS011;37610;51.790;21.590;2022-10-18T04:20:11;26.20;;;14.80;;
51523;SDS011;37610;51.790;21.590;2022-10-18T04:24:15;26.90;;;15.30;;
51523;SDS011;37610;51.790;21.590;2022-10-18T04:28:17;22.40;;;13.50;;
51523;SDS011;37610;51.790;21.590;2022-10-18T04:32:19;23.00;;;13.70;;
51523;SDS011;37610;51.790;21.590;2022-10-18T04:36:20;20.80;;;12.90;;
51523;SDS011;37610;51.790;21.590;2022-10-18T04:40:21;23.20;;;13.40;;
51523;SDS011;37610;51.790;21.590;2022-10-18T04:44:23;18.10;;;12.00;;
51523;SDS011;37610;51.790;21.590;2022-10-18T04:48:24;20.90;;;13.00;;
51523;SDS011;37610;51.790;21.590;2022-10-18T04:52:26;21.00;;;12.70;;
51523;SDS011;37610;51.790;21.590;2022-10-18T04:56:27;16.40;;;12.20;;
51523;SDS011;37610;51.790;21.590;2022-10-18T05:00:29;18.00;;;12.10;;
51523;SDS011;37610;51.790;21.590;2022-10-18T05:04:30;21.50;;;16.50;;
51523;SDS011;37610;51.790;21.590;2022-10-18T05:08:32;20.00;;;13.20;;
51523;SDS011;37610;51.790;21.590;2022-10-18T05:12:35;19.20;;;13.60;;
51523;SDS011;37610;51.790;21.590;2022-10-18T05:16:36;22.90;;;13.60;;
51523;SDS011;37610;51.790;21.590;2022-10-18T05:20:38;23.20;;;14.30;;
51523;SDS011;37610;51.790;21.590;2022-10-18T05:24:39;22.40;;;12.30;;
51523;SDS011;37610;51.790;21.590;2022-10-18T05:28:40;19.20;;;13.10;;
51523;SDS011;37610;51.790;21.590;2022-10-18T05:32:42;23.20;;;13.10;;
51523;SDS011;37610;51.790;21.590;2022-10-18T05:36:43;27.10;;;16.00;;
51523;SDS011;37610;51.790;21.590;2022-10-18T05:40:44;23.80;;;15.30;;
51523;SDS011;37610;51.790;21.590;2022-10-18T05:44:46;28.80;;;15.20;;
51523;SDS011;37610;51.790;21.590;2022-10-18T05:48:50;24.20;;;13.60;;
51523;SDS011;37610;51.790;21.590;2022-10-18T05:52:54;27.50;;;14.70;;
51523;SDS011;37610;51.790;21.590;2022-10-18T05:56:58;23.60;;;13.60;;
51523;SDS011;37610;51.790;21.590;2022-10-18T06:01:00;22.20;;;12.90;;
51523;SDS011;37610;51.790;21.590;2022-10-18T06:05:02;21.50;;;12.90;;
51523;SDS011;37610;51.790;21.590;2022-10-18T06:09:05;20.30;;;13.50;;
51523;SDS011;37610;51.790;21.590;2022-10-18T06:13:08;22.00;;;13.60;;
51523;SDS011;37610;51.790;21.590;2022-10-18T06:17:10;22.00;;;13.40;;
51523;SDS011;37610;51.790;21.590;2022-10-18T06:21:11;23.30;;;14.60;;
51523;SDS011;37610;51.790;21.590;2022-10-18T06:25:13;20.50;;;13.90;;
51523;SDS011;37610;51.790;21.590;2022-10-18T06:29:14;23.90;;;14.20;;
51523;SDS011;37610;51.790;21.590;2022-10-18T06:33:15;24.60;;;16.00;;
51523;SDS011;37610;51.790;21.590;2022-10-18T06:37:17;31.40;;;19.60;;
51523;SDS011;37610;51.790;21.590;2022-10-18T06:41:18;23.10;;;16.10;;
51523;SDS011;37610;51.790;21.590;2022-10-18T06:45:20;48.90;;;33.30;;
51523;SDS011;37610;51.790;21.590;2022-10-18T06:49:22;46.10;;;23.40;;
51523;SDS011;37610;51.790;21.590;2022-10-18T06:53:27;33.60;;;19.40;;
51523;SDS011;37610;51.790;21.590;2022-10-18T06:57:31;24.80;;;15.70;;
51523;SDS011;37610;51.790;21.590;2022-10-18T07:01:32;24.30;;;15.20;;
51523;SDS011;37610;51.790;21.590;2022-10-18T07:05:34;21.90;;;16.10;;
51523;SDS011;37610;51.790;21.590;2022-10-18T07:09:35;32.50;;;11.20;;
51523;SDS011;37610;51.790;21.590;2022-10-18T07:13:36;18.90;;;10.40;;
51523;SDS011;37610;51.790;21.590;2022-10-18T07:17:38;21.00;;;10.70;;
51523;SDS011;37610;51.790;21.590;2022-10-18T07:21:39;20.00;;;9.90;;
51523;SDS011;37610;51.790;21.590;2022-10-18T07:25:40;16.80;;;10.60;;
51523;SDS011;37610;51.790;21.590;2022-10-18T07:29:42;20.10;;;10.20;;
51523;SDS011;37610;51.790;21.590;2022-10-18T07:33:43;16.60;;;10.90;;
51523;SDS011;37610;51.790;21.590;2022-10-18T07:37:45;21.70;;;11.70;;
51523;SDS011;37610;51.790;21.590;2022-10-18T07:41:46;23.50;;;15.50;;
51523;SDS011;37610;51.790;21.590;2022-10-18T07:45:51;22.00;;;14.70;;
51523;SDS011;37610;51.790;21.590;2022-10-18T07:49:56;15.80;;;11.60;;
51523;SDS011;37610;51.790;21.590;2022-10-18T07:53:58;16.50;;;10.80;;
51523;SDS011;37610;51.790;21.590;2022-10-18T07:57:59;19.10;;;11.40;;
51523;SDS011;37610;51.790;21.590;2022-10-18T08:02:01;15.40;;;10.80;;
51523;SDS011;37610;51.790;21.590;2022-10-18T08:06:03;16.80;;;11.10;;
51523;SDS011;37610;51.790;21.590;2022-10-18T08:10:06;15.00;;;9.90;;
51523;SDS011;37610;51.790;21.590;2022-10-18T08:14:08;16.60;;;11.10;;
51523;SDS011;37610;51.790;21.590;2022-10-18T08:18:09;14.50;;;10.60;;
51523;SDS011;37610;51.790;21.590;2022-10-18T08:22:11;17.50;;;12.20;;
51523;SDS011;37610;51.790;21.590;2022-10-18T08:26:14;14.40;;;8.40;;
51523;SDS011;37610;51.790;21.590;2022-10-18T08:30:17;17.10;;;7.50;;
51523;SDS011;37610;51.790;21.590;2022-10-18T08:34:18;14.60;;;7.10;;
51523;SDS011;37610;51.790;21.590;2022-10-18T08:38:19;11.20;;;7.20;;
51523;SDS011;37610;51.790;21.590;2022-10-18T08:46:28;13.30;;;7.10;;
51523;SDS011;37610;51.790;21.590;2022-10-18T08:50:32;10.60;;;6.50;;
51523;SDS011;37610;51.790;21.590;2022-10-18T08:54:38;10.50;;;7.70;;
51523;SDS011;37610;51.790;21.590;2022-10-18T08:58:49;10.00;;;6.20;;
51523;SDS011;37610;51.790;21.590;2022-10-18T09:20:10;12.90;;;8.30;;
51523;SDS011;37610;51.790;21.590;2022-10-18T09:33:04;11.00;;;6.40;;
51523;SDS011;37610;51.790;21.590;2022-10-18T09:37:11;13.50;;;7.70;;
51523;SDS011;37610;51.790;21.590;2022-10-18T09:45:31;12.40;;;6.00;;
51523;SDS011;37610;51.790;21.590;2022-10-18T09:49:42;12.60;;;7.60;;
51523;SDS011;37610;51.790;21.590;2022-10-18T09:53:52;14.80;;;6.90;;
51523;SDS011;37610;51.790;21.590;2022-10-18T09:57:56;12.80;;;6.70;;
51523;SDS011;37610;51.790;21.590;2022-10-18T10:02:00;12.60;;;8.90;;
51523;SDS011;37610;51.790;21.590;2022-10-18T10:14:27;12.50;;;6.80;;
51523;SDS011;37610;51.790;21.590;2022-10-18T10:18:32;9.60;;;5.90;;
51523;SDS011;37610;51.790;21.590;2022-10-18T10:22:37;11.50;;;6.20;;
51523;SDS011;37610;51.790;21.590;2022-10-18T10:26:40;13.10;;;6.70;;
51523;SDS011;37610;51.790;21.590;2022-10-18T10:30:41;13.10;;;6.40;;
51523;SDS011;37610;51.790;21.590;2022-10-18T10:34:43;14.50;;;6.80;;
51523;SDS011;37610;51.790;21.590;2022-10-18T10:38:44;11.60;;;6.50;;
51523;SDS011;37610;51.790;21.590;2022-10-18T10:47:01;13.90;;;5.90;;
51523;SDS011;37610;51.790;21.590;2022-10-18T10:51:05;12.30;;;8.10;;
51523;SDS011;37610;51.790;21.590;2022-10-18T10:55:16;11.40;;;6.70;;
51523;SDS011;37610;51.790;21.590;2022-10-18T10:59:21;11.30;;;7.40;;
51523;SDS011;37610;51.790;21.590;2022-10-18T11:03:26;19.10;;;9.70;;
51523;SDS011;37610;51.790;21.590;2022-10-18T11:07:30;12.50;;;6.50;;
51523;SDS011;37610;51.790;21.590;2022-10-18T11:11:38;16.60;;;6.90;;
51523;SDS011;37610;51.790;21.590;2022-10-18T11:15:58;9.90;;;6.70;;
51523;SDS011;37610;51.790;21.590;2022-10-18T11:24:25;9.20;;;5.90;;
51523;SDS011;37610;51.790;21.590;2022-10-18T11:32:50;11.90;;;6.90;;
51523;SDS011;37610;51.790;21.590;2022-10-18T11:41:19;10.10;;;6.00;;
51523;SDS011;37610;51.790;21.590;2022-10-18T11:45:44;11.20;;;7.00;;
51523;SDS011;37610;51.790;21.590;2022-10-18T12:06:49;10.60;;;6.30;;
51523;SDS011;37610;51.790;21.590;2022-10-18T12:10:55;10.90;;;5.80;;
51523;SDS011;37610;51.790;21.590;2022-10-18T12:15:15;12.30;;;6.20;;
51523;SDS011;37610;51.790;21.590;2022-10-18T12:19:26;9.50;;;5.90;;
51523;SDS011;37610;51.790;21.590;2022-10-18T12:28:00;10.00;;;7.50;;
51523;SDS011;37610;51.790;21.590;2022-10-18T12:32:09;10.70;;;5.80;;
51523;SDS011;37610;51.790;21.590;2022-10-18T12:44:33;12.50;;;6.40;;
51523;SDS011;37610;51.790;21.590;2022-10-18T12:48:36;9.40;;;6.20;;
51523;SDS011;37610;51.790;21.590;2022-10-18T12:52:42;15.10;;;7.00;;
51523;SDS011;37610;51.790;21.590;2022-10-18T12:56:43;19.30;;;6.20;;
51523;SDS011;37610;51.790;21.590;2022-10-18T13:04:48;14.30;;;6.70;;
51523;SDS011;37610;51.790;21.590;2022-10-18T13:13:27;9.50;;;6.40;;
51523;SDS011;37610;51.790;21.590;2022-10-18T13:21:53;9.50;;;6.30;;
51523;SDS011;37610;51.790;21.590;2022-10-18T13:30:37;15.30;;;8.30;;
51523;SDS011;37610;51.790;21.590;2022-10-18T13:34:44;14.30;;;7.90;;
51523;SDS011;37610;51.790;21.590;2022-10-18T13:38:56;23.70;;;8.10;;
51523;SDS011;37610;51.790;21.590;2022-10-18T13:47:42;13.90;;;8.10;;
51523;SDS011;37610;51.790;21.590;2022-10-18T14:08:56;13.40;;;8.70;;
51523;SDS011;37610;51.790;21.590;2022-10-18T14:13:00;27.10;;;7.90;;
51523;SDS011;37610;51.790;21.590;2022-10-18T14:21:17;11.20;;;6.80;;
51523;SDS011;37610;51.790;21.590;2022-10-18T14:25:28;11.20;;;7.30;;
51523;SDS011;37610;51.790;21.590;2022-10-18T14:33:41;9.90;;;5.10;;
51523;SDS011;37610;51.790;21.590;2022-10-18T14:37:45;13.40;;;6.30;;
51523;SDS011;37610;51.790;21.590;2022-10-18T14:41:49;10.40;;;6.80;;
51523;SDS011;37610;51.790;21.590;2022-10-18T14:45:53;12.70;;;6.80;;
51523;SDS011;37610;51.790;21.590;2022-10-18T14:49:54;14.30;;;6.70;;
51523;SDS011;37610;51.790;21.590;2022-10-18T14:53:57;12.70;;;7.40;;
51523;SDS011;37610;51.790;21.590;2022-10-18T14:57:59;13.80;;;7.30;;
51523;SDS011;37610;51.790;21.590;2022-10-18T15:02:01;14.50;;;7.40;;
51523;SDS011;37610;51.790;21.590;2022-10-18T15:06:11;26.80;;;7.90;;
51523;SDS011;37610;51.790;21.590;2022-10-18T15:14:25;13.50;;;7.70;;
51523;SDS011;37610;51.790;21.590;2022-10-18T15:18:28;12.20;;;7.70;;
51523;SDS011;37610;51.790;21.590;2022-10-18T15:22:30;14.90;;;7.90;;
51523;SDS011;37610;51.790;21.590;2022-10-18T15:26:32;13.10;;;7.90;;
51523;SDS011;37610;51.790;21.590;2022-10-18T15:30:37;12.10;;;7.30;;
51523;SDS011;37610;51.790;21.590;2022-10-18T15:34:42;11.10;;;7.40;;
51523;SDS011;37610;51.790;21.590;2022-10-18T15:38:45;14.40;;;7.80;;
51523;SDS011;37610;51.790;21.590;2022-10-18T15:42:48;12.80;;;8.00;;
51523;SDS011;37610;51.790;21.590;2022-10-18T15:46:53;10.50;;;7.90;;
51523;SDS011;37610;51.790;21.590;2022-10-18T15:50:57;13.80;;;7.90;;
51523;SDS011;37610;51.790;21.590;2022-10-18T15:59:29;12.20;;;7.90;;
51523;SDS011;37610;51.790;21.590;2022-10-18T16:03:35;12.80;;;8.90;;
51523;SDS011;37610;51.790;21.590;2022-10-18T16:07:39;14.40;;;9.20;;
51523;SDS011;37610;51.790;21.590;2022-10-18T16:11:40;33.50;;;18.00;;
51523;SDS011;37610;51.790;21.590;2022-10-18T16:15:42;79.20;;;35.30;;
51523;SDS011;37610;51.790;21.590;2022-10-18T16:19:43;24.90;;;14.20;;
51523;SDS011;37610;51.790;21.590;2022-10-18T16:23:46;19.20;;;11.70;;
51523;SDS011;37610;51.790;21.590;2022-10-18T16:27:48;25.20;;;14.30;;
51523;SDS011;37610;51.790;21.590;2022-10-18T16:31:50;27.80;;;16.90;;
51523;SDS011;37610;51.790;21.590;2022-10-18T16:35:53;26.80;;;15.90;;
51523;SDS011;37610;51.790;21.590;2022-10-18T16:39:55;20.50;;;14.50;;
51523;SDS011;37610;51.790;21.590;2022-10-18T16:43:56;29.30;;;16.70;;
51523;SDS011;37610;51.790;21.590;2022-10-18T16:47:58;28.10;;;17.20;;
51523;SDS011;37610;51.790;21.590;2022-10-18T16:51:59;24.40;;;14.50;;
51523;SDS011;37610;51.790;21.590;2022-10-18T16:56:02;50.90;;;29.40;;
51523;SDS011;37610;51.790;21.590;2022-10-18T17:00:05;26.50;;;15.90;;
51523;SDS011;37610;51.790;21.590;2022-10-18T17:04:07;26.10;;;16.30;;
51523;SDS011;37610;51.790;21.590;2022-10-18T17:08:19;28.90;;;18.10;;
51523;SDS011;37610;51.790;21.590;2022-10-18T17:12:23;33.20;;;21.80;;
51523;SDS011;37610;51.790;21.590;2022-10-18T17:16:25;37.00;;;20.30;;
51523;SDS011;37610;51.790;21.590;2022-10-18T17:20:28;25.40;;;17.10;;
51523;SDS011;37610;51.790;21.590;2022-10-18T17:24:30;23.30;;;14.40;;
51523;SDS011;37610;51.790;21.590;2022-10-18T17:28:31;27.40;;;16.30;;
51523;SDS011;37610;51.790;21.590;2022-10-18T17:32:33;25.10;;;16.90;;
51523;SDS011;37610;51.790;21.590;2022-10-18T17:36:34;28.60;;;16.10;;
51523;SDS011;37610;51.790;21.590;2022-10-18T17:40:38;26.90;;;15.00;;
51523;SDS011;37610;51.790;21.590;2022-10-18T17:44:43;20.70;;;12.30;;
51523;SDS011;37610;51.790;21.590;2022-10-18T17:48:46;14.90;;;10.30;;
51523;SDS011;37610;51.790;21.590;2022-10-18T17:52:47;21.50;;;14.00;;
51523;SDS011;37610;51.790;21.590;2022-10-18T17:56:49;20.00;;;11.50;;
51523;SDS011;37610;51.790;21.590;2022-10-18T18:00:50;11.10;;;6.80;;
51523;SDS011;37610;51.790;21.590;2022-10-18T18:04:52;9.70;;;6.40;;
51523;SDS011;37610;51.790;21.590;2022-10-18T18:08:54;13.20;;;9.60;;
51523;SDS011;37610;51.790;21.590;2022-10-18T18:12:57;9.70;;;5.40;;
51523;SDS011;37610;51.790;21.590;2022-10-18T18:16:58;8.50;;;4.80;;
51523;SDS011;37610;51.790;21.590;2022-10-18T18:25:02;9.20;;;4.90;;
51523;SDS011;37610;51.790;21.590;2022-10-18T18:29:04;5.50;;;3.60;;
51523;SDS011;37610;51.790;21.590;2022-10-18T18:33:06;7.50;;;3.80;;
51523;SDS011;37610;51.790;21.590;2022-10-18T18:37:08;9.00;;;5.10;;
51523;SDS011;37610;51.790;21.590;2022-10-18T18:41:10;7.70;;;4.80;;
51523;SDS011;37610;51.790;21.590;2022-10-18T18:45:14;7.90;;;5.90;;
51523;SDS011;37610;51.790;21.590;2022-10-18T18:49:15;6.90;;;5.30;;
51523;SDS011;37610;51.790;21.590;2022-10-18T18:53:17;7.80;;;3.80;;
51523;SDS011;37610;51.790;21.590;2022-10-18T18:57:19;8.30;;;5.90;;
51523;SDS011;37610;51.790;21.590;2022-10-18T19:01:28;7.30;;;4.80;;
51523;SDS011;37610;51.790;21.590;2022-10-18T19:05:32;8.40;;;5.90;;
51523;SDS011;37610;51.790;21.590;2022-10-18T19:09:34;6.60;;;5.40;;
51523;SDS011;37610;51.790;21.590;2022-10-18T19:13:38;10.10;;;5.70;;
51523;SDS011;37610;51.790;21.590;2022-10-18T19:17:39;8.10;;;5.40;;
51523;SDS011;37610;51.790;21.590;2022-10-18T19:21:42;21.50;;;15.20;;
51523;SDS011;37610;51.790;21.590;2022-10-18T19:25:51;15.00;;;8.80;;
51523;SDS011;37610;51.790;21.590;2022-10-18T19:29:53;12.40;;;7.60;;
51523;SDS011;37610;51.790;21.590;2022-10-18T19:33:54;7.00;;;5.20;;
51523;SDS011;37610;51.790;21.590;2022-10-18T19:37:55;7.20;;;4.80;;
51523;SDS011;37610;51.790;21.590;2022-10-18T19:41:58;7.00;;;3.80;;
51523;SDS011;37610;51.790;21.590;2022-10-18T19:46:03;6.60;;;4.30;;
51523;SDS011;37610;51.790;21.590;2022-10-18T19:50:05;7.90;;;5.00;;
51523;SDS011;37610;51.790;21.590;2022-10-18T19:54:08;6.50;;;4.50;;
51523;SDS011;37610;51.790;21.590;2022-10-18T19:58:12;6.50;;;4.10;;
51523;SDS011;37610;51.790;21.590;2022-10-18T20:02:13;7.50;;;4.30;;
51523;SDS011;37610;51.790;21.590;2022-10-18T20:06:15;6.70;;;4.10;;
51523;SDS011;37610;51.790;21.590;2022-10-18T20:10:17;5.00;;;3.90;;
51523;SDS011;37610;51.790;21.590;2022-10-18T20:14:18;7.20;;;4.40;;
51523;SDS011;37610;51.790;21.590;2022-10-18T20:18:21;7.30;;;4.10;;
51523;SDS011;37610;51.790;21.590;2022-10-18T20:22:22;6.90;;;4.70;;
51523;SDS011;37610;51.790;21.590;2022-10-18T20:26:24;6.50;;;4.50;;
51523;SDS011;37610;51.790;21.590;2022-10-18T20:30:25;5.40;;;3.40;;
51523;SDS011;37610;51.790;21.590;2022-10-18T20:34:27;5.20;;;3.20;;
51523;SDS011;37610;51.790;21.590;2022-10-18T20:38:29;4.60;;;2.90;;
51523;SDS011;37610;51.790;21.590;2022-10-18T20:42:32;3.50;;;2.50;;
51523;SDS011;37610;51.790;21.590;2022-10-18T20:46:34;7.10;;;3.50;;
51523;SDS011;37610;51.790;21.590;2022-10-18T20:50:39;6.00;;;3.30;;
51523;SDS011;37610;51.790;21.590;2022-10-18T20:54:42;6.60;;;3.00;;
51523;SDS011;37610;51.790;21.590;2022-10-18T20:58:44;5.60;;;3.30;;
51523;SDS011;37610;51.790;21.590;2022-10-18T21:02:46;7.10;;;4.40;;
51523;SDS011;37610;51.790;21.590;2022-10-18T21:06:48;10.30;;;4.00;;
51523;SDS011;37610;51.790;21.590;2022-10-18T21:10:49;5.10;;;3.20;;
51523;SDS011;37610;51.790;21.590;2022-10-18T21:14:51;7.30;;;3.80;;
51523;SDS011;37610;51.790;21.590;2022-10-18T21:18:52;6.30;;;4.70;;
51523;SDS011;37610;51.790;21.590;2022-10-18T21:22:54;7.40;;;5.20;;
51523;SDS011;37610;51.790;21.590;2022-10-18T21:26:57;6.80;;;5.30;;
51523;SDS011;37610;51.790;21.590;2022-10-18T21:31:07;9.90;;;7.20;;
51523;SDS011;37610;51.790;21.590;2022-10-18T21:39:19;11.50;;;8.20;;
51523;SDS011;37610;51.790;21.590;2022-10-18T21:43:22;9.80;;;5.80;;
51523;SDS011;37610;51.790;21.590;2022-10-18T21:47:23;12.30;;;6.20;;
51523;SDS011;37610;51.790;21.590;2022-10-18T21:51:25;14.10;;;7.70;;
51523;SDS011;37610;51.790;21.590;2022-10-18T21:55:27;9.50;;;6.30;;
51523;SDS011;37610;51.790;21.590;2022-10-18T21:59:29;9.30;;;4.70;;
51523;SDS011;37610;51.790;21.590;2022-10-18T22:03:30;7.90;;;4.60;;
51523;SDS011;37610;51.790;21.590;2022-10-18T22:07:31;8.30;;;4.10;;
51523;SDS011;37610;51.790;21.590;2022-10-18T22:11:40;9.40;;;5.10;;
51523;SDS011;37610;51.790;21.590;2022-10-18T22:15:44;8.80;;;5.00;;
51523;SDS011;37610;51.790;21.590;2022-10-18T22:19:46;6.70;;;3.70;;
51523;SDS011;37610;51.790;21.590;2022-10-18T22:23:50;6.20;;;3.60;;
51523;SDS011;37610;51.790;21.590;2022-10-18T22:27:53;7.10;;;5.30;;
51523;SDS011;37610;51.790;21.590;2022-10-18T22:31:54;6.90;;;5.20;;
51523;SDS011;37610;51.790;21.590;2022-10-18T22:35:55;8.10;;;5.10;;
51523;SDS011;37610;51.790;21.590;2022-10-18T22:39:57;7.10;;;5.70;;
51523;SDS011;37610;51.790;21.590;2022-10-18T22:43:58;6.10;;;4.10;;
51523;SDS011;37610;51.790;21.590;2022-10-18T22:48:00;9.20;;;5.40;;
51523;SDS011;37610;51.790;21.590;2022-10-18T22:52:01;8.10;;;4.20;;
51523;SDS011;37610;51.790;21.590;2022-10-18T22:56:03;8.70;;;5.00;;
51523;SDS011;37610;51.790;21.590;2022-10-18T23:00:05;9.10;;;4.20;;
51523;SDS011;37610;51.790;21.590;2022-10-18T23:04:08;7.00;;;4.10;;
51523;SDS011;37610;51.790;21.590;2022-10-18T23:08:11;7.50;;;5.90;;
51523;SDS011;37610;51.790;21.590;2022-10-18T23:12:14;10.20;;;6.70;;
51523;SDS011;37610;51.790;21.590;2022-10-18T23:16:15;6.60;;;4.50;;
51523;SDS011;37610;51.790;21.590;2022-10-18T23:20:17;8.50;;;5.30;;
51523;SDS011;37610;51.790;21.590;2022-10-18T23:24:19;9.10;;;6.60;;
51523;SDS011;37610;51.790;21.590;2022-10-18T23:28:20;8.80;;;5.40;;
51523;SDS011;37610;51.790;21.590;2022-10-18T23:32:21;8.30;;;5.50;;
51523;SDS011;37610;51.790;21.590;2022-10-18T23:36:23;9.40;;;6.90;;
51523;SDS011;37610;51.790;21.590;2022-10-18T23:40:25;9.40;;;6.90;;
51523;SDS011;37610;51.790;21.590;2022-10-18T23:44:27;9.90;;;6.30;;
51523;SDS011;37610;51.790;21.590;2022-10-18T23:48:28;9.20;;;7.00;;
51523;SDS011;37610;51.790;21.590;2022-10-18T23:52:30;10.10;;;7.00;;
51523;SDS011;37610;51.790;21.590;2022-10-18T23:56:31;10.00;;;7.50;;
